Tonopah, Nevada Weather observations

Data are for observation ending at time listed.
 Day   Time    Ave.   Ave.  Ave.  Vector   Max.   Stn.    Total    Solar   Ave.  
  of    of     Air    Rel.  Wind   Wind    Wind   Baro.  Precip.   Rad.    Soil  
Year   Day     Temp.  Hum.  Speed  Dir.    Gust   Pres.                    Temp. 
2017   (PST)    F      %     mph   deg.    mph     mb.     in.     W/m2     F   
------------------------------------------------------------------------------
  18    9:00   32.0    44    8.2   112     13.3   812.4    0.00     155    29.4
  18    9:10   31.9    46    6.6   109     13.4   812.4    0.00     158    29.5
  18    9:20   31.5    47    7.9    99     12.4   812.1    0.00     174    29.5
  18    9:30   31.4    47    8.5   107     15.1   812.1    0.00     188    29.5
  18    9:40   31.3    48    7.4   100     14.0   812.0    0.00     198    29.5
  18    9:50   32.0    46    6.7   104     11.7   812.1    0.00     247    29.6
  18   10:00   32.2    45    8.6   107     17.3   812.0    0.00     278    29.6
  18   10:10   32.6    43   10.2   119     16.4   811.7    0.00     286    29.6
  18   10:20   32.5    44   10.1   109     18.1   811.5    0.00     247    29.6
  18   10:30   32.3    44   11.8   115     18.9   811.2    0.00     264    29.6
  18   10:40   32.7    44    9.5   113     15.0   811.3    0.00     282    29.7
  18   10:50   32.4    43   10.5   110     17.9   810.9    0.00     325    29.7
  18   11:00   33.6    42    9.7   114     16.0   810.7    0.00     481    29.7
  18   11:10   33.7    43    9.5   112     15.6   810.5    0.00     435    29.8
  18   11:20   34.0    42   10.5   121     17.5   810.1    0.00     450    29.9
  18   11:30   34.2    42   10.0   121     21.0   809.8    0.00     441    29.9
  18   11:40   33.9    43   11.0   122     18.3   809.5    0.00     352    29.9
  18   11:50   33.8    43   12.9   127     21.9   808.9    0.00     366    29.9
  18   12:00   34.3    43   12.8   124     21.3   808.6    0.00     437    30.0
  18   12:10   34.6    45   11.3   122     17.2   808.5    0.00     352    30.0
  18   12:20   34.4    44   12.2   130     22.4   808.3    0.00     239    30.0
  18   12:30   34.8    42   12.1   127     18.9   808.2    0.00     239    30.1
  18   12:40   35.6    40   11.1   126     19.4   808.2    0.00     251    30.1
  18   12:50   35.9    40   10.3   123     16.7   808.2    0.00     270    30.1
  18   13:00   36.1    38   10.3   124     16.6   808.2    0.00     291    30.2
  18   13:10   36.2    38    9.9   100     18.1   808.0    0.00     298    30.2
  18   13:20   36.5    39    8.1   112     14.5   808.1    0.00     260    30.2
  18   13:30   36.7    38    9.1   122     17.1   807.9    0.00     234    30.2
  18   13:40   36.9    39    8.3   121     13.4   807.8    0.00     224    30.2
  18   13:50   37.0    37   10.3   125     17.2   807.6    0.00     196    30.3
  18   14:00   36.8    37    8.9   127     14.5   807.6    0.00     176    30.3
  18   14:10   36.5    38    9.9   125     17.5   807.7    0.00     148    30.3
  18   14:20   36.2    39    9.9   131     15.1   807.8    0.00     145    30.3
  18   14:30   36.4    38    9.8   131     16.2   807.9    0.00     149    30.4
  18   14:40   36.2    38    9.2   125     17.6   808.0    0.00     128    30.4
  18   14:50   35.5    41    9.0   130     14.2   808.0    0.00     122    30.4
  18   15:00   35.4    43   10.3   133     15.9   807.7    0.00     116    30.4
  18   15:10   35.5    42    9.2   125     16.4   807.7    0.00     112    30.4
  18   15:20   35.6    42    9.2   136     14.3   807.7    0.00      90    30.4
  18   15:30   35.6    41   10.0   134     16.2   807.7    0.00      82    30.4
  18   15:40   35.5    41   10.9   141     19.9   807.7    0.00      68    30.5
  18   15:50   34.8    44    9.4   141     15.3   807.8    0.00      36    30.5
  18   16:00   34.4    45    9.3   150     14.9   808.0    0.00      26    30.5
  18   16:10   34.3    46    7.9   144     13.4   808.0    0.00      14    30.5
  18   16:20   34.3    46    7.3   135     12.2   807.9    0.00       8    30.5
  18   16:30   34.4    46    5.3   124      8.6   807.9    0.00       7    30.5
  18   16:40   34.1    47    6.3   105     12.1   807.6    0.00       4    30.5
  18   16:50   34.0    46    8.2   117     15.0   807.3    0.00       4    30.5
  18   17:00   33.9    47   10.6   117     16.9   806.9    0.00       3    30.5
  18   17:10   34.3    45   10.8   119     18.7   806.7    0.00       0    30.5
  18   17:20   34.2    44   12.2   114     20.5   806.6    0.00       0    30.5
  18   17:30   34.0    44   12.2   117     22.4   806.5    0.00       0    30.4
  18   17:40   33.6    47   10.7   112     19.5   806.6    0.00       0    30.4
  18   17:50   33.4    48    9.7   112     16.6   806.6    0.00       0    30.4
  18   18:00   33.3    48    8.5   124     14.3   806.9    0.00       0    30.4
  18   18:10   33.2    49    9.0   131     15.9   807.1    0.00       0    30.4
  18   18:20   33.2    48    9.8   133     17.2   807.3    0.00       0    30.4
  18   18:30   33.3    48    8.8   133     14.2   807.4    0.00       0    30.4
  18   18:40   33.2    49    8.8   134     15.0   807.3    0.00       0    30.4
  18   18:50   33.0    50    8.1   134     11.6   807.1    0.00       0    30.4
  18   19:00   32.8    50    9.1   137     13.7   807.1    0.00       0    30.4
  18   19:10   32.7    51    8.3   132     13.8   807.1    0.00       0    30.4
  18   19:20   32.5    52    7.2   130     12.1   807.2    0.00       0    30.4
  18   19:30   32.5    54    5.0   124      8.9   807.4    0.00       0    30.3
  18   19:40   32.6    52    6.2   129     11.9   807.5    0.00       0    30.3
  18   19:50   32.8    52    8.0   132     15.1   807.3    0.00       0    30.3
  18   20:00   32.6    53    7.3   124     12.9   807.1    0.00       0    30.3
  18   20:10   32.3    54    7.8   124     13.6   806.8    0.00       0    30.3
  18   20:20   32.1    55    8.4   117     14.5   806.6    0.00       0    30.3
  18   20:30   31.8    56    8.9   101     16.7   806.2    0.00       0    30.3
  18   20:40   31.9    55   10.2   108     17.3   805.8    0.00       0    30.3
  18   20:50   31.9    55    8.5   121     15.9   806.3    0.00       0    30.3
  18   21:00   31.5    57    6.8   116     11.5   806.4    0.00       0    30.3
  18   21:10   31.4    57    7.3   108     12.3   806.2    0.00       0    30.2
  18   21:20   31.4    59    7.9   120     14.3   806.4    0.00       0    30.2
  18   21:30   30.6    67    8.5   117     14.2   806.2    0.00       0    30.2
  18   21:40   29.8    76   10.1   109     17.9   806.1    0.00       0    30.2
  18   21:50   29.7    81    9.2   114     16.1   805.9    0.00       0    30.2
  18   22:00   29.6    83   10.1   109     17.8   805.5    0.00       0    30.2
  18   22:10   29.5    84    9.7   111     17.1   805.6    0.00       0    30.2
  18   22:20   29.3    85   10.3   109     16.4   805.3    0.00       1    30.2
  18   22:30   29.3    85   11.3   114     18.6   804.9    0.00       0    30.2
  18   22:40   28.9    87   10.2   107     18.9   804.9    0.00       0    30.1
  18   22:50   28.5    92   11.3   105     20.2   804.8    0.00       0    30.1
  18   23:00   28.3    94   10.7   100     18.7   804.6    0.00       0    30.1
  18   23:10   28.4    96   11.2   109     18.6   804.9    0.00       0    30.1
  18   23:20   28.4    97   11.2   120     19.3   804.7    0.00       0    30.1
  18   23:30   28.5    98   10.6   117     16.7   804.6    0.00       0    30.1
  18   23:40   28.5    98   11.9   119     20.2   804.3    0.00       0    30.0
  18   23:50   28.8    98   12.3   125     19.6   804.2    0.00       0    30.0
  19    0:00   28.8    97    9.7   121     17.8   804.3    0.00       0    30.0
  19    0:10   28.8    97    9.7   109     16.8   804.3    0.00       0    30.1
  19    0:20   28.9    98    9.4   103     19.0   803.9    0.00       0    30.1
  19    0:30   28.9    98    9.3   112     16.4   803.9    0.00       0    30.1
  19    0:40   29.4    98    8.8   125     15.0   804.0    0.00       0    30.1
  19    0:50   29.7    98    8.2   120     14.3   803.9    0.00       0    30.1
  19    1:00   29.7    97    7.4   114     12.8   804.0    0.00       0    30.1
  19    1:10   29.7    97    5.9   116     11.8   804.3    0.00       0    30.1
  19    1:20   29.8    96    7.1   132     11.5   804.4    0.00       0    30.1
  19    1:30   30.0    93    7.3   129     14.1   804.6    0.00       0    30.1
  19    1:40   29.9    92    6.6   134     12.1   804.7    0.00       0    30.1
  19    1:50   29.6    91    7.6   136     12.3   804.7    0.00       0    30.1
  19    2:00   29.5    90    6.9   138     12.3   804.6    0.00       0    30.1
  19    2:10   29.4    90    5.4   133      8.9   804.5    0.00       0    30.1
  19    2:20   29.3    89    4.6   131      7.3   804.5    0.00       0    30.1
  19    2:30   29.1    88    5.3   139      9.6   804.4    0.00       0    30.1
  19    2:40   28.4    90    6.9   132     11.4   804.3    0.00       0    30.1
  19    2:50   27.9    95    6.6   124     11.5   804.0    0.00       0    30.1
  19    3:00   28.1    96    6.9   141     11.5   804.1    0.00       0    30.1
  19    3:10   28.3    96    8.5   156     14.0   804.3    0.00       0    30.1
  19    3:20   28.3    96    9.8   161     14.2   804.0    0.00       0    30.1
  19    3:30   28.3    94    9.4   162     12.6   804.0    0.00       0    30.1
  19    3:40   28.5    93    8.0   149     12.5   803.7    0.00       0    30.0
  19    3:50   29.0    92   10.2   153     15.5   803.6    0.00       0    30.0
  19    4:00   29.2    91   11.2   155     17.5   803.6    0.00       0    30.1
  19    4:10   29.4    91    9.8   163     15.7   803.6    0.00       0    30.0
  19    4:20   29.7    91    8.0   146     14.3   803.4    0.00       0    30.0
  19    4:30   29.7    91   10.9   154     16.4   803.4    0.00       0    30.1
  19    4:40   29.7    91    8.1   149     13.9   803.4    0.00       0    30.1
  19    4:50   29.2    92    7.2   154     12.9   803.4    0.00       0    30.1
  19    5:00   29.2    93    8.6   156     11.6   803.3    0.00       0    30.1
  19    5:10   29.2    94    8.0   159     12.3   803.3    0.00       0    30.1
  19    5:20   29.1    95    6.9   143     11.2   803.3    0.00       0    30.1
  19    5:30   28.9    96    5.9   130     10.2   803.4    0.00       0    30.1
  19    5:40   28.8    97    3.4   112      6.4   803.5    0.00       0    30.1
  19    5:50   28.8    98    4.2    90      8.0   803.3    0.00       0    30.1
  19    6:00   28.7    98    4.0    84      6.7   803.3    0.00       1    30.1
  19    6:10   28.6    98    4.6    70      7.4   803.4    0.00       1    30.1
  19    6:20   28.9    98    4.4    73      8.4   803.6    0.00       1    30.1
  19    6:30   28.9    98    2.7   124      5.6   803.7    0.00       0    30.1
  19    6:40   29.0    99    2.4   128      4.4   803.7    0.00       0    30.1
  19    6:50   29.1    99    2.1   112      3.7   803.8    0.00       1    30.1
  19    7:00   29.3    99    1.4    96      2.9   803.8    0.00       3    30.1
  19    7:10   29.4    99    1.9   135      3.9   804.0    0.00       4    30.1
  19    7:20   29.6    99    3.3   158      4.9   804.0    0.00       4    30.1
  19    7:30   29.7    99    2.9   146      4.7   804.0    0.00       5    30.1
  19    7:40   29.9    99    4.0   138      6.9   804.0    0.00      17    30.1
  19    7:50   30.1    99    3.7   135      6.4   803.9    0.00      26    30.1
  19    8:00   30.2    99    2.7   102      5.3   803.9    0.00      32    30.1
  19    8:10   30.3    99    2.6   129      4.7   803.9    0.00      50    30.1
  19    8:20   30.4    99    4.0   150      5.9   803.9    0.00      64    30.2
  19    8:30   30.3    99    4.6   143      7.5   804.0    0.00      57    30.2
  19    8:40   30.4    99    3.4   139      6.1   804.0    0.00      50    30.2
  19    8:50   30.5    99    4.5   138      7.1   804.0    0.00      52    30.2

Return to Tonopah, Nevada graphs page.


Western Regional Climate Center,wrcc@dri.edu